Delhi, Texas
Current Conditions -  °F | °C
As of 7:50 PM on Saturday 20 Dec 2014 (Local Time) from K3T5 Reporting Station
Haze Haze  
Wind Chill: 52°   Ceiling: 700
Heat Index: 52°   Visibility: 4mi
Dew Point: 51°   Wind: 5mph
Humidity: 96%   Direction: 110°ESE
Pressure: 30.17"   Gusts: NA
Location:  29.8725°N, 97.3223°W
Report Text: K3T5 210150Z AUTO 11004KT 4SM BR OVC007 11/11 A3017 RMK AO2 T01120106
Loading
Personal Weather Stations






























Interactive Weather Map New forecast layout! Learn more

10-Day Weather Forecast

Advertisements
Track Severe Weather on mobile